createdAt,value
2018-07-04T00:03:43.019Z,2.27
2018-07-04T00:08:58.495Z,2.73
2018-07-04T00:14:13.873Z,2.73
2018-07-04T00:19:29.270Z,3.10
2018-07-04T00:24:44.686Z,3.07
2018-07-04T00:29:59.996Z,2.70
2018-07-04T00:35:15.803Z,2.90
2018-07-04T00:40:31.208Z,2.10
2018-07-04T00:45:46.639Z,2.93
2018-07-04T00:51:02.347Z,2.50
2018-07-04T00:56:17.558Z,2.30
2018-07-04T01:01:32.977Z,2.70
2018-07-04T01:06:48.415Z,2.60
2018-07-04T01:12:03.811Z,2.80
2018-07-04T01:17:19.599Z,3.00
2018-07-04T01:22:34.851Z,2.60
2018-07-04T01:27:50.775Z,3.43
2018-07-04T01:33:06.071Z,3.20
2018-07-04T01:38:21.519Z,2.20
2018-07-04T01:43:36.955Z,2.80
2018-07-04T01:48:53.091Z,3.23
2018-07-04T01:54:09.247Z,2.23
2018-07-04T01:59:24.768Z,3.87
2018-07-04T02:04:40.051Z,2.60
2018-07-04T02:09:55.310Z,3.10
2018-07-04T02:15:10.786Z,3.03
2018-07-04T02:20:26.119Z,3.37
2018-07-04T02:25:42.316Z,2.50
2018-07-04T02:30:57.636Z,2.83
2018-07-04T02:36:12.924Z,2.43
2018-07-04T02:41:28.339Z,2.60
2018-07-04T02:46:43.724Z,3.00
2018-07-04T02:51:59.312Z,4.07
2018-07-04T02:57:15.177Z,3.30
2018-07-04T03:02:30.811Z,2.80
2018-07-04T03:07:46.049Z,3.10
2018-07-04T03:13:01.339Z,3.93
2018-07-04T03:18:16.661Z,3.17
2018-07-04T03:23:32.076Z,2.63
2018-07-04T03:28:47.405Z,3.90
2018-07-04T03:34:02.689Z,5.33
2018-07-04T03:39:18.042Z,4.60
2018-07-04T03:44:33.431Z,3.00
2018-07-04T03:49:48.845Z,3.13
2018-07-04T03:55:05.727Z,3.10
2018-07-04T04:00:21.027Z,3.57
2018-07-04T04:05:36.764Z,4.10
2018-07-04T04:10:52.863Z,2.67
2018-07-04T04:16:08.068Z,3.33
2018-07-04T04:21:23.575Z,3.63
2018-07-04T04:26:38.912Z,3.20
2018-07-04T04:31:54.420Z,3.27
2018-07-04T04:37:03.887Z,4.73
2018-07-04T04:42:19.157Z,3.67
2018-07-04T04:47:35.771Z,4.90
2018-07-04T04:52:51.763Z,5.40
2018-07-04T04:58:07.106Z,5.80
2018-07-04T05:03:22.483Z,5.50
2018-07-04T05:08:37.847Z,4.57
2018-07-04T05:13:53.226Z,4.57
2018-07-04T05:19:08.622Z,4.37
2018-07-04T05:24:24.083Z,3.07
2018-07-04T05:29:40.309Z,3.90
2018-07-04T05:34:55.659Z,4.90
2018-07-04T05:40:11.031Z,4.17
2018-07-04T05:45:26.242Z,3.10
2018-07-04T05:50:41.408Z,6.10
2018-07-04T05:55:56.877Z,4.40
2018-07-04T06:01:12.316Z,7.70
2018-07-04T06:06:27.819Z,6.37
2018-07-04T06:11:45.441Z,3.60
2018-07-04T06:17:00.869Z,5.70
2018-07-04T06:22:16.284Z,6.63
2018-07-04T06:27:31.647Z,6.20
2018-07-04T06:32:47.031Z,6.57
2018-07-04T06:37:53.120Z,5.50
2018-07-04T06:42:57.095Z,6.10
2018-07-04T06:48:00.139Z,4.60
2018-07-04T06:53:03.176Z,4.30
2018-07-04T06:58:06.818Z,4.97
2018-07-04T07:03:22.404Z,3.60
2018-07-04T07:08:37.765Z,4.20
2018-07-04T07:13:53.223Z,3.90
2018-07-04T07:19:08.589Z,3.57
2018-07-04T07:24:24.674Z,3.07
2018-07-04T07:29:40.898Z,3.30
2018-07-04T07:34:56.168Z,2.60
2018-07-04T07:40:11.590Z,2.47
2018-07-04T07:45:27.047Z,2.80
2018-07-04T07:50:42.371Z,2.10
2018-07-04T07:55:57.862Z,2.10
2018-07-04T08:01:13.338Z,2.10
2018-07-04T08:06:28.825Z,2.60
2018-07-04T08:11:44.153Z,2.03
2018-07-04T08:16:59.596Z,2.37
2018-07-04T08:22:15.499Z,1.93
2018-07-04T08:27:24.832Z,2.30
2018-07-04T08:32:39.943Z,2.20
2018-07-04T08:37:55.269Z,2.73
2018-07-04T08:43:10.424Z,2.10
2018-07-04T08:48:25.618Z,1.93
2018-07-04T08:53:41.554Z,1.93
2018-07-04T08:58:57.663Z,2.40
2018-07-04T09:04:15.064Z,2.13
2018-07-04T09:09:30.562Z,2.67
2018-07-04T09:14:46.049Z,1.90
2018-07-04T09:20:01.648Z,4.57
2018-07-04T09:25:17.109Z,3.80
2018-07-04T09:30:32.537Z,5.30
2018-07-04T09:35:47.959Z,5.13
2018-07-04T09:41:03.338Z,4.90
2018-07-04T09:46:18.751Z,5.07
2018-07-04T09:51:34.272Z,5.13
2018-07-04T09:56:50.539Z,3.93
2018-07-04T10:02:06.703Z,4.20
2018-07-04T10:07:22.228Z,3.33
2018-07-04T10:12:37.667Z,3.13
2018-07-04T10:17:53.073Z,3.33
2018-07-04T10:23:08.417Z,3.10
2018-07-04T10:28:23.943Z,3.70
2018-07-04T10:33:39.310Z,3.53
2018-07-04T10:38:54.831Z,3.87
2018-07-04T10:44:10.223Z,3.80
2018-07-04T10:49:26.350Z,3.20
2018-07-04T10:54:41.646Z,3.30
2018-07-04T10:59:57.078Z,2.87
2018-07-04T11:05:12.529Z,3.30
2018-07-04T11:10:27.862Z,3.20
2018-07-04T11:15:43.360Z,3.13
2018-07-04T11:20:58.843Z,3.60
2018-07-04T11:26:14.425Z,3.40
2018-07-04T11:31:23.758Z,3.30
2018-07-04T11:36:39.154Z,3.60
2018-07-04T11:41:54.584Z,3.70
2018-07-04T11:46:57.751Z,2.97
2018-07-04T11:52:00.787Z,3.20
2018-07-04T11:57:03.872Z,5.00
2018-07-04T12:02:06.817Z,5.17
2018-07-04T12:07:10.549Z,4.63
2018-07-04T12:12:13.552Z,4.90
2018-07-04T12:17:16.575Z,4.93
2018-07-04T12:22:19.858Z,5.43
2018-07-04T12:27:22.786Z,5.13
2018-07-04T12:32:25.818Z,6.23
2018-07-04T12:37:28.848Z,5.50
2018-07-04T12:42:31.848Z,4.23
2018-07-04T12:47:34.864Z,3.90
2018-07-04T12:52:37.901Z,3.60
2018-07-04T12:57:53.211Z,2.87
2018-07-04T13:03:08.598Z,3.00
2018-07-04T13:08:24.103Z,2.63
2018-07-04T13:13:39.583Z,1.93
2018-07-04T13:18:55.771Z,2.23
2018-07-04T13:24:11.176Z,2.57
2018-07-04T13:29:26.622Z,2.80
2018-07-04T13:34:42.923Z,2.20
2018-07-04T13:39:59.162Z,2.30
2018-07-04T13:45:14.556Z,2.30
2018-07-04T13:50:29.992Z,2.30
2018-07-04T13:55:46.359Z,2.50
2018-07-04T14:01:02.276Z,3.00
2018-07-04T14:06:17.572Z,2.80
2018-07-04T14:11:32.980Z,3.10
2018-07-04T14:16:49.253Z,3.53
2018-07-04T14:22:04.643Z,3.13
2018-07-04T14:27:19.963Z,3.80
2018-07-04T14:32:35.457Z,4.47
2018-07-04T14:37:51.708Z,3.63
2018-07-04T14:43:01.115Z,4.67
2018-07-04T14:48:16.312Z,4.50
2018-07-04T14:53:31.698Z,4.90
2018-07-04T14:58:47.088Z,5.60
2018-07-04T15:04:02.367Z,4.97
2018-07-04T15:09:17.775Z,5.23
2018-07-04T15:14:33.121Z,6.47
2018-07-04T15:19:48.559Z,5.90
2018-07-04T15:25:04.456Z,5.03
2018-07-04T15:30:24.731Z,5.20
2018-07-04T15:35:40.084Z,4.87
2018-07-04T15:41:01.379Z,4.33
2018-07-04T15:46:16.751Z,6.70
2018-07-04T15:51:32.179Z,8.10
2018-07-04T15:56:47.552Z,6.97
2018-07-04T16:02:03.028Z,7.67
2018-07-04T16:07:18.768Z,6.40
2018-07-04T16:12:34.207Z,5.80
2018-07-04T16:17:44.523Z,5.40
2018-07-04T16:22:59.760Z,4.30
2018-07-04T16:28:15.158Z,6.80
2018-07-04T16:33:30.491Z,5.60
2018-07-04T16:38:45.908Z,5.97
2018-07-04T16:44:01.339Z,6.40
2018-07-04T16:49:16.719Z,5.73
2018-07-04T16:54:32.931Z,5.60
2018-07-04T16:59:48.980Z,5.87
2018-07-04T17:05:04.339Z,5.37
2018-07-04T17:10:19.973Z,4.60
2018-07-04T17:15:35.259Z,6.33
2018-07-04T17:20:50.742Z,5.70
2018-07-04T17:26:06.119Z,5.77
2018-07-04T17:31:21.563Z,6.13
2018-07-04T17:36:37.760Z,5.80
2018-07-04T17:41:53.489Z,4.87
2018-07-04T17:47:08.975Z,6.27
2018-07-04T17:52:26.325Z,6.80
2018-07-04T17:57:42.277Z,6.33
2018-07-04T18:02:57.719Z,6.67
2018-07-04T18:08:13.203Z,6.67
2018-07-04T18:13:28.737Z,6.30
2018-07-04T18:18:44.184Z,5.43
2018-07-04T18:23:59.608Z,5.70
2018-07-04T18:29:14.976Z,5.80
2018-07-04T18:34:30.419Z,5.77
2018-07-04T18:39:45.816Z,5.37
2018-07-04T18:45:05.148Z,5.47
2018-07-04T18:50:20.352Z,6.07
2018-07-04T18:55:35.840Z,5.87
2018-07-04T19:00:51.235Z,5.90
2018-07-04T19:06:06.515Z,5.83
2018-07-04T19:11:15.864Z,5.33
2018-07-04T19:16:31.403Z,5.40
2018-07-04T19:21:40.598Z,5.20
2018-07-04T19:26:56.868Z,3.87
2018-07-04T19:32:15.090Z,4.70
2018-07-04T19:37:31.304Z,4.60
2018-07-04T19:42:47.394Z,5.33
2018-07-04T19:48:04.019Z,5.30
2018-07-04T19:53:14.506Z,4.13
2018-07-04T19:58:29.667Z,5.53
2018-07-04T20:03:46.899Z,4.70
2018-07-04T20:09:07.088Z,4.50
2018-07-04T20:14:22.264Z,5.07
2018-07-04T20:19:37.503Z,5.10
2018-07-04T20:24:52.924Z,6.13
2018-07-04T20:30:02.347Z,5.63
2018-07-04T20:35:17.514Z,5.10
2018-07-04T20:40:35.760Z,4.90
2018-07-04T20:45:51.175Z,4.60
2018-07-04T20:51:06.756Z,3.70
2018-07-04T20:56:22.806Z,5.00
2018-07-04T21:01:38.082Z,4.80
2018-07-04T21:06:53.610Z,4.60
2018-07-04T21:12:08.975Z,5.30
2018-07-04T21:17:25.020Z,4.93
2018-07-04T21:22:40.187Z,4.13
2018-07-04T21:27:49.651Z,4.00
2018-07-04T21:32:59.042Z,5.50
2018-07-04T21:38:14.220Z,5.43
2018-07-04T21:43:30.068Z,5.30
2018-07-04T21:48:45.433Z,5.27
2018-07-04T21:54:04.330Z,5.43
2018-07-04T21:59:19.743Z,4.50
2018-07-04T22:04:29.097Z,4.30
2018-07-04T22:09:44.399Z,4.23
2018-07-04T22:15:02.482Z,4.13
2018-07-04T22:20:17.752Z,4.20
2018-07-04T22:25:33.022Z,3.53
2018-07-04T22:30:49.263Z,3.50
2018-07-04T22:36:07.487Z,3.50
2018-07-04T22:41:16.675Z,3.47
2018-07-04T22:46:31.822Z,3.93
2018-07-04T22:51:47.223Z,4.10
2018-07-04T22:57:02.708Z,4.00
2018-07-04T23:02:18.044Z,3.83
2018-07-04T23:07:33.951Z,4.10
2018-07-04T23:12:50.837Z,3.47
2018-07-04T23:18:07.060Z,3.60
2018-07-04T23:23:23.182Z,3.43
2018-07-04T23:28:40.301Z,3.03
2018-07-04T23:33:58.252Z,3.10
2018-07-04T23:39:15.472Z,3.03
2018-07-04T23:44:24.815Z,2.40
2018-07-04T23:49:39.908Z,2.80
2018-07-04T23:54:55.172Z,2.60
